Time;durP1;ratioP1;P1;durP2;ratioP2;P2;SDS_P1;SDS_P2;PMS_P1;PMS_P2;Temp;Humidity;BMP_temperature;BMP_pressure;BME280_temperature;BME280_humidity;BME280_pressure;Samples;Min_cycle;Max_cycle;Signal;HPM_P1;HPM_P2
2023/06/09 00:01:11;;;;;;;12.52;3.25;;;;;;;;;;5009399;28;20022;-42
2023/06/09 00:03:39;;;;;;;11.63;2.97;;;;;;;;;;5008376;28;20057;-44
2023/06/09 00:06:08;;;;;;;17.27;3.10;;;;;;;;;;5010546;28;21409;-42
2023/06/09 00:08:38;;;;;;;11.93;2.72;;;;;;;;;;5010902;28;20061;-41
2023/06/09 00:11:05;;;;;;;12.90;3.08;;;;;;;;;;5011025;28;20092;-41
2023/06/09 00:13:32;;;;;;;16.38;4.00;;;;;;;;;;5010715;28;20036;-40
2023/06/09 00:15:59;;;;;;;18.50;2.80;;;;;;;;;;5010448;28;20061;-41
2023/06/09 00:18:26;;;;;;;14.82;3.30;;;;;;;;;;5009185;28;20124;-40
2023/06/09 00:20:53;;;;;;;10.25;3.20;;;;;;;;;;5011043;28;20048;-40
2023/06/09 00:23:20;;;;;;;20.38;5.55;;;;;;;;;;5005093;28;20489;-40
2023/06/09 00:25:47;;;;;;;16.42;4.53;;;;;;;;;;4991730;28;20042;-41
2023/06/09 00:28:14;;;;;;;12.57;4.63;;;;;;;;;;4990041;28;20112;-41
2023/06/09 00:30:41;;;;;;;15.68;5.18;;;;;;;;;;5001892;28;20041;-40
2023/06/09 00:33:08;;;;;;;16.20;4.50;;;;;;;;;;5011040;28;20365;-41
2023/06/09 00:35:35;;;;;;;15.27;4.50;;;;;;;;;;4996707;28;20065;-39
2023/06/09 00:38:02;;;;;;;17.17;4.35;;;;;;;;;;5001142;28;20044;-39
2023/06/09 00:40:29;;;;;;;17.23;4.70;;;;;;;;;;5015100;28;20030;-40
2023/06/09 00:42:56;;;;;;;17.17;4.57;;;;;;;;;;4995245;28;20030;-39
2023/06/09 00:45:23;;;;;;;11.48;5.07;;;;;;;;;;4995586;28;20073;-39
2023/06/09 00:47:52;;;;;;;18.08;4.75;;;;;;;;;;4995697;28;20034;-42
2023/06/09 00:50:19;;;;;;;12.85;4.70;;;;;;;;;;4995201;28;20038;-40
2023/06/09 00:52:48;;;;;;;19.92;4.38;;;;;;;;;;4995215;28;20786;-40
2023/06/09 00:55:17;;;;;;;19.33;5.60;;;;;;;;;;4995462;28;20373;-40
2023/06/09 00:57:44;;;;;;;14.88;4.90;;;;;;;;;;4995446;28;20038;-40
2023/06/09 01:00:15;;;;;;;12.48;4.90;;;;;;;;;;4995338;28;20106;-43
2023/06/09 01:02:42;;;;;;;17.42;4.57;;;;;;;;;;5007872;28;20037;-42
2023/06/09 01:05:10;;;;;;;15.38;4.30;;;;;;;;;;5014846;28;20112;-42
2023/06/09 01:07:42;;;;;;;13.77;4.50;;;;;;;;;;4999196;28;20044;-40
2023/06/09 01:10:19;;;;;;;10.95;4.57;;;;;;;;;;4995191;28;20596;-41
2023/06/09 01:13:09;;;;;;;16.05;4.75;;;;;;;;;;4996160;28;20125;-43
2023/06/09 01:15:41;;;;;;;14.32;4.53;;;;;;;;;;4994627;28;20046;-42
2023/06/09 01:18:12;;;;;;;12.80;4.00;;;;;;;;;;5013313;28;20099;-43
2023/06/09 01:20:48;;;;;;;9.82;4.30;;;;;;;;;;5014680;28;20038;-40
2023/06/09 01:23:33;;;;;;;24.40;5.85;;;;;;;;;;5014436;28;20038;-40
2023/06/09 01:26:01;;;;;;;24.67;6.00;;;;;;;;;;5014694;28;20096;-40
2023/06/09 01:28:29;;;;;;;21.13;6.07;;;;;;;;;;5014422;28;20042;-40
2023/06/09 01:30:57;;;;;;;21.48;6.70;;;;;;;;;;5014364;28;20045;-39
2023/06/09 01:33:25;;;;;;;26.67;7.22;;;;;;;;;;5013021;28;20096;-40
2023/06/09 01:35:53;;;;;;;24.77;7.10;;;;;;;;;;5014465;28;20515;-41
2023/06/09 01:38:21;;;;;;;21.13;6.82;;;;;;;;;;5013606;28;20030;-40
2023/06/09 01:40:48;;;;;;;24.73;7.57;;;;;;;;;;5014112;28;20076;-40
2023/06/09 01:43:15;;;;;;;22.52;7.60;;;;;;;;;;5014073;28;20042;-41
2023/06/09 01:45:42;;;;;;;18.98;7.35;;;;;;;;;;5013810;28;20037;-41
2023/06/09 01:48:15;;;;;;;25.67;7.75;;;;;;;;;;5013693;28;20095;-40
2023/06/09 01:50:49;;;;;;;30.27;7.95;;;;;;;;;;4995922;28;20034;-41
2023/06/09 01:53:21;;;;;;;35.10;7.75;;;;;;;;;;5013233;28;20113;-41
2023/06/09 01:55:53;;;;;;;30.95;7.65;;;;;;;;;;5010671;28;20034;-44
2023/06/09 01:58:23;;;;;;;28.77;7.55;;;;;;;;;;5012760;28;20080;-41
2023/06/09 02:00:51;;;;;;;26.10;6.72;;;;;;;;;;5014128;28;20040;-42
2023/06/09 02:03:20;;;;;;;24.05;6.78;;;;;;;;;;5013286;28;20034;-41
2023/06/09 02:05:47;;;;;;;24.35;6.75;;;;;;;;;;5012760;28;20021;-40
2023/06/09 02:08:15;;;;;;;28.80;6.22;;;;;;;;;;5012818;28;20033;-42
2023/06/09 02:10:42;;;;;;;18.98;6.50;;;;;;;;;;5011177;28;20038;-42
2023/06/09 02:13:16;;;;;;;21.23;6.65;;;;;;;;;;5012187;28;20037;-42
2023/06/09 02:15:44;;;;;;;20.02;6.45;;;;;;;;;;5010858;28;20045;-41
2023/06/09 02:18:15;;;;;;;19.48;6.63;;;;;;;;;;5012986;28;20127;-41
2023/06/09 02:20:42;;;;;;;20.73;6.43;;;;;;;;;;5010151;28;20034;-41
2023/06/09 02:23:10;;;;;;;19.20;5.78;;;;;;;;;;5013028;28;20132;-42
2023/06/09 02:25:37;;;;;;;24.08;5.80;;;;;;;;;;5011739;28;20030;-41
2023/06/09 02:28:05;;;;;;;18.20;5.63;;;;;;;;;;5015483;28;20033;-41
2023/06/09 02:30:33;;;;;;;17.77;5.28;;;;;;;;;;4995335;28;20087;-41
2023/06/09 02:33:00;;;;;;;18.05;5.88;;;;;;;;;;5012539;28;20703;-41
2023/06/09 02:35:27;;;;;;;12.90;5.57;;;;;;;;;;5012803;28;20513;-40
2023/06/09 02:37:54;;;;;;;13.68;4.75;;;;;;;;;;5012888;28;20026;-39
2023/06/09 02:40:22;;;;;;;12.20;4.95;;;;;;;;;;5009915;28;20083;-40
2023/06/09 02:42:49;;;;;;;15.32;4.82;;;;;;;;;;5013157;28;20069;-41
2023/06/09 02:45:16;;;;;;;12.60;4.45;;;;;;;;;;5011841;28;20091;-40
2023/06/09 02:47:43;;;;;;;11.18;4.53;;;;;;;;;;5013239;28;20033;-40
2023/06/09 02:50:12;;;;;;;15.38;4.78;;;;;;;;;;5013119;28;20515;-41
2023/06/09 02:52:59;;;;;;;11.77;4.25;;;;;;;;;;5012931;28;20561;-40
2023/06/09 02:55:28;;;;;;;10.35;4.50;;;;;;;;;;5012980;28;20018;-41
2023/06/09 02:57:55;;;;;;;11.13;4.32;;;;;;;;;;5012597;28;20496;-41
2023/06/09 03:00:22;;;;;;;11.75;4.68;;;;;;;;;;5012272;28;20041;-41
2023/06/09 03:02:51;;;;;;;12.23;4.38;;;;;;;;;;5012961;28;20061;-40
2023/06/09 03:05:20;;;;;;;11.65;4.40;;;;;;;;;;5012770;28;20026;-40
2023/06/09 03:07:49;;;;;;;11.48;4.15;;;;;;;;;;5012963;28;20034;-40
2023/06/09 03:10:16;;;;;;;10.20;4.07;;;;;;;;;;5012664;28;20590;-40
2023/06/09 03:12:43;;;;;;;12.25;4.22;;;;;;;;;;5012773;28;20029;-40
2023/06/09 03:15:10;;;;;;;12.00;4.10;;;;;;;;;;5012575;28;20037;-41
2023/06/09 03:17:41;;;;;;;8.55;4.07;;;;;;;;;;5011377;28;20486;-41
2023/06/09 03:20:09;;;;;;;11.38;3.88;;;;;;;;;;5012874;28;20483;-41
2023/06/09 03:22:36;;;;;;;7.82;3.67;;;;;;;;;;5012439;28;20096;-39
2023/06/09 03:25:03;;;;;;;8.60;4.22;;;;;;;;;;5012716;28;20033;-40
2023/06/09 03:27:30;;;;;;;11.20;4.35;;;;;;;;;;5012604;28;20165;-40
2023/06/09 03:29:58;;;;;;;10.40;3.47;;;;;;;;;;5011180;28;20034;-43
2023/06/09 03:32:25;;;;;;;7.70;3.85;;;;;;;;;;5010912;28;20622;-41
2023/06/09 03:34:52;;;;;;;11.68;4.35;;;;;;;;;;5012607;28;20030;-42
2023/06/09 03:37:20;;;;;;;7.85;3.70;;;;;;;;;;5011068;28;20026;-41
2023/06/09 03:39:47;;;;;;;10.35;3.72;;;;;;;;;;5011364;28;20026;-41
2023/06/09 03:42:14;;;;;;;11.02;3.70;;;;;;;;;;5012353;28;20029;-41
2023/06/09 03:44:41;;;;;;;8.55;3.70;;;;;;;;;;5012348;28;20034;-41
2023/06/09 03:47:09;;;;;;;8.60;4.10;;;;;;;;;;5012444;28;20033;-39
2023/06/09 03:49:36;;;;;;;9.00;3.78;;;;;;;;;;5012147;28;20116;-39
2023/06/09 03:52:06;;;;;;;9.45;3.35;;;;;;;;;;5012173;28;20029;-39
2023/06/09 03:54:34;;;;;;;9.60;3.78;;;;;;;;;;5012269;28;20058;-39
2023/06/09 03:57:01;;;;;;;6.10;3.10;;;;;;;;;;5012088;28;20450;-39
2023/06/09 03:59:28;;;;;;;7.80;3.78;;;;;;;;;;5012142;28;20080;-39
2023/06/09 04:01:55;;;;;;;7.78;3.40;;;;;;;;;;5012063;28;20045;-39
2023/06/09 04:04:22;;;;;;;5.93;3.10;;;;;;;;;;5012105;28;20041;-39
2023/06/09 04:06:49;;;;;;;5.22;3.20;;;;;;;;;;5012099;28;20403;-39
2023/06/09 04:09:16;;;;;;;6.10;3.30;;;;;;;;;;5011935;28;20026;-39
2023/06/09 04:11:43;;;;;;;5.72;2.83;;;;;;;;;;5011814;28;20069;-39
2023/06/09 04:14:10;;;;;;;6.03;3.13;;;;;;;;;;5011949;28;20500;-40
2023/06/09 04:16:37;;;;;;;9.70;3.60;;;;;;;;;;5011831;28;20507;-39
2023/06/09 04:19:04;;;;;;;7.88;3.42;;;;;;;;;;5011927;28;20042;-39
2023/06/09 04:21:32;;;;;;;6.28;3.03;;;;;;;;;;5009213;28;20084;-39
2023/06/09 04:23:59;;;;;;;6.80;3.08;;;;;;;;;;4992295;28;20036;-39
2023/06/09 04:26:27;;;;;;;6.55;3.30;;;;;;;;;;4992113;28;20034;-39
2023/06/09 04:28:54;;;;;;;7.93;3.15;;;;;;;;;;4992140;28;20026;-39
2023/06/09 04:31:24;;;;;;;7.47;3.00;;;;;;;;;;4992024;28;20084;-41
2023/06/09 04:33:55;;;;;;;4.75;2.70;;;;;;;;;;4992092;28;20101;-40
2023/06/09 04:36:22;;;;;;;5.55;2.63;;;;;;;;;;4992075;28;20069;-40
2023/06/09 04:38:49;;;;;;;7.35;2.88;;;;;;;;;;4992112;28;20023;-40
2023/06/09 04:41:17;;;;;;;5.20;2.60;;;;;;;;;;4991951;28;20038;-40
2023/06/09 04:43:44;;;;;;;6.85;3.10;;;;;;;;;;4991982;28;20440;-41
2023/06/09 04:46:12;;;;;;;4.50;2.72;;;;;;;;;;4992067;28;20027;-40
2023/06/09 04:48:41;;;;;;;8.20;3.08;;;;;;;;;;4991884;28;20481;-41
2023/06/09 04:51:10;;;;;;;7.38;3.08;;;;;;;;;;4991757;28;20069;-41
2023/06/09 04:53:37;;;;;;;6.70;2.80;;;;;;;;;;4991927;28;20031;-41
2023/06/09 04:56:06;;;;;;;4.47;2.63;;;;;;;;;;4990708;28;20035;-41
2023/06/09 04:58:33;;;;;;;5.43;2.20;;;;;;;;;;4991725;28;20476;-41
2023/06/09 05:01:00;;;;;;;9.48;2.85;;;;;;;;;;4991841;28;20026;-41
2023/06/09 05:03:28;;;;;;;5.88;2.72;;;;;;;;;;4991894;28;20038;-41
2023/06/09 05:05:55;;;;;;;5.18;2.33;;;;;;;;;;4991969;28;20094;-40
2023/06/09 05:08:22;;;;;;;4.70;2.33;;;;;;;;;;4991876;28;20392;-40
2023/06/09 05:10:49;;;;;;;5.13;2.35;;;;;;;;;;4991771;28;20085;-40
2023/06/09 05:13:16;;;;;;;6.25;2.40;;;;;;;;;;4991648;28;20578;-43
2023/06/09 05:15:43;;;;;;;135.45;6.93;;;;;;;;;;4991661;28;20054;-41
2023/06/09 05:18:10;;;;;;;266.15;12.70;;;;;;;;;;4991710;28;20027;-41
2023/06/09 05:20:37;;;;;;;113.72;7.72;;;;;;;;;;4991631;28;20484;-40
2023/06/09 05:23:04;;;;;;;62.13;4.72;;;;;;;;;;4991766;28;20037;-39
2023/06/09 05:25:30;;;;;;;56.10;4.88;;;;;;;;;;4995133;28;20085;-39
2023/06/09 05:27:57;;;;;;;54.40;4.40;;;;;;;;;;4995297;28;20574;-39
2023/06/09 05:30:24;;;;;;;52.15;4.38;;;;;;;;;;4995148;28;20066;-39
2023/06/09 05:32:51;;;;;;;54.25;5.13;;;;;;;;;;4995198;28;20054;-39
2023/06/09 05:35:18;;;;;;;44.30;4.13;;;;;;;;;;4995111;28;20093;-39
2023/06/09 05:37:52;;;;;;;38.40;4.00;;;;;;;;;;4995052;28;20026;-39
2023/06/09 05:40:20;;;;;;;32.00;3.92;;;;;;;;;;4994929;28;20528;-39
2023/06/09 05:42:47;;;;;;;27.85;3.55;;;;;;;;;;4995104;28;20133;-39
2023/06/09 05:45:14;;;;;;;28.88;3.85;;;;;;;;;;4994952;28;20033;-39
2023/06/09 05:47:41;;;;;;;30.55;3.25;;;;;;;;;;4994921;28;20085;-39
2023/06/09 05:50:08;;;;;;;33.92;3.05;;;;;;;;;;4994661;28;20042;-39
2023/06/09 05:52:35;;;;;;;31.88;3.28;;;;;;;;;;4994813;28;20121;-39
2023/06/09 05:55:02;;;;;;;27.35;2.92;;;;;;;;;;4994654;28;20026;-39
2023/06/09 05:57:32;;;;;;;23.27;2.75;;;;;;;;;;4994906;28;20538;-39
2023/06/09 06:00:07;;;;;;;32.55;3.10;;;;;;;;;;4994709;28;20062;-39
2023/06/09 06:02:34;;;;;;;19.58;2.78;;;;;;;;;;5008882;28;20030;-41
2023/06/09 06:05:03;;;;;;;20.02;2.47;;;;;;;;;;5014025;28;20439;-41
2023/06/09 06:07:29;;;;;;;20.90;2.53;;;;;;;;;;5014024;28;20030;-40
2023/06/09 06:09:56;;;;;;;14.35;2.30;;;;;;;;;;5014049;28;20030;-40
2023/06/09 06:12:23;;;;;;;16.95;2.60;;;;;;;;;;5014014;28;20026;-41
2023/06/09 06:14:50;;;;;;;20.38;2.33;;;;;;;;;;5013996;28;20030;-40
2023/06/09 06:17:17;;;;;;;18.55;2.50;;;;;;;;;;5013778;28;20050;-39
2023/06/09 06:19:44;;;;;;;14.90;2.30;;;;;;;;;;5013944;28;20022;-39
2023/06/09 06:22:11;;;;;;;18.15;2.00;;;;;;;;;;5013819;28;20065;-39
2023/06/09 06:24:38;;;;;;;14.88;2.20;;;;;;;;;;5013756;28;20108;-41
2023/06/09 06:27:05;;;;;;;14.82;2.05;;;;;;;;;;5013895;28;20046;-41
2023/06/09 06:29:33;;;;;;;16.00;1.95;;;;;;;;;;5013718;28;20444;-40
2023/06/09 06:32:00;;;;;;;13.15;1.70;;;;;;;;;;5013519;28;20087;-40
2023/06/09 06:34:27;;;;;;;11.88;1.88;;;;;;;;;;5013152;28;20041;-41
2023/06/09 06:36:55;;;;;;;12.93;1.92;;;;;;;;;;5012734;28;20029;-41
2023/06/09 06:39:22;;;;;;;14.23;2.08;;;;;;;;;;5013552;28;20026;-41
2023/06/09 06:41:49;;;;;;;11.63;1.65;;;;;;;;;;5013365;28;20032;-40
2023/06/09 06:44:16;;;;;;;8.80;1.63;;;;;;;;;;5013432;28;20025;-41
2023/06/09 06:46:43;;;;;;;13.45;1.55;;;;;;;;;;5013432;28;20092;-41
2023/06/09 06:49:10;;;;;;;12.55;1.52;;;;;;;;;;5013330;28;20089;-41
2023/06/09 06:51:37;;;;;;;6.20;1.40;;;;;;;;;;5013220;28;20069;-41
2023/06/09 06:54:04;;;;;;;8.20;1.77;;;;;;;;;;5013239;28;20092;-41
2023/06/09 06:56:31;;;;;;;12.48;1.40;;;;;;;;;;5013260;28;20054;-41
2023/06/09 06:58:58;;;;;;;10.60;1.38;;;;;;;;;;5012913;28;20038;-41
2023/06/09 07:01:25;;;;;;;9.52;1.52;;;;;;;;;;5013149;28;20549;-40
2023/06/09 07:03:52;;;;;;;11.80;1.58;;;;;;;;;;5013134;28;20038;-41
2023/06/09 07:06:20;;;;;;;8.32;1.40;;;;;;;;;;5012985;28;20057;-41
2023/06/09 07:08:46;;;;;;;7.32;1.60;;;;;;;;;;5013001;28;20105;-40
2023/06/09 07:11:14;;;;;;;5.13;1.25;;;;;;;;;;5012839;28;20026;-41
2023/06/09 07:13:41;;;;;;;4.47;1.70;;;;;;;;;;5012953;28;20034;-41
2023/06/09 07:16:08;;;;;;;4.85;1.25;;;;;;;;;;4994865;28;20050;-41
2023/06/09 07:18:36;;;;;;;8.13;1.20;;;;;;;;;;5012785;28;20051;-40
2023/06/09 07:21:03;;;;;;;5.78;1.10;;;;;;;;;;5012522;28;20399;-41
2023/06/09 07:23:30;;;;;;;3.20;1.17;;;;;;;;;;5012725;28;20101;-40
2023/06/09 07:25:57;;;;;;;5.72;1.10;;;;;;;;;;5012709;28;20076;-40
2023/06/09 07:28:24;;;;;;;5.68;1.10;;;;;;;;;;5012766;28;20112;-39
2023/06/09 07:30:51;;;;;;;7.80;1.02;;;;;;;;;;5012464;28;20100;-39
2023/06/09 07:33:19;;;;;;;10.93;1.05;;;;;;;;;;5012586;28;20088;-39
2023/06/09 07:35:48;;;;;;;8.40;1.15;;;;;;;;;;5012376;28;20037;-39
2023/06/09 07:38:16;;;;;;;2.28;0.82;;;;;;;;;;5012533;28;20041;-39
2023/06/09 07:40:43;;;;;;;7.78;1.13;;;;;;;;;;5012509;28;20045;-39
2023/06/09 07:43:10;;;;;;;3.95;0.80;;;;;;;;;;5012494;28;20032;-39
2023/06/09 07:45:37;;;;;;;4.70;1.00;;;;;;;;;;4994948;28;20032;-39
2023/06/09 07:48:04;;;;;;;5.43;0.95;;;;;;;;;;5012059;28;20047;-39
2023/06/09 07:50:31;;;;;;;6.15;0.82;;;;;;;;;;5012202;28;20092;-39
2023/06/09 07:52:58;;;;;;;5.20;0.90;;;;;;;;;;5012260;28;20200;-39
2023/06/09 07:55:25;;;;;;;8.00;0.90;;;;;;;;;;5012302;28;20026;-39
2023/06/09 07:57:52;;;;;;;5.35;1.13;;;;;;;;;;5012151;28;20097;-39
2023/06/09 08:00:19;;;;;;;5.28;0.70;;;;;;;;;;5012122;28;20033;-39
2023/06/09 08:02:46;;;;;;;6.25;0.88;;;;;;;;;;5012172;28;20045;-39
2023/06/09 08:05:13;;;;;;;5.20;0.90;;;;;;;;;;5011967;28;20103;-39
2023/06/09 08:07:40;;;;;;;4.85;0.65;;;;;;;;;;5012103;28;20030;-39
2023/06/09 08:10:08;;;;;;;6.65;0.90;;;;;;;;;;5012015;28;20030;-39
2023/06/09 08:12:35;;;;;;;2.95;0.73;;;;;;;;;;5011958;28;20061;-41
2023/06/09 08:15:02;;;;;;;6.20;0.60;;;;;;;;;;5011694;28;20373;-41
2023/06/09 08:17:29;;;;;;;6.43;0.95;;;;;;;;;;5011976;28;20030;-41
2023/06/09 08:19:56;;;;;;;3.28;0.65;;;;;;;;;;5011372;28;20152;-43
2023/06/09 08:22:23;;;;;;;5.13;0.73;;;;;;;;;;5011825;28;20038;-41
2023/06/09 08:24:50;;;;;;;2.88;0.80;;;;;;;;;;5011846;28;20025;-41
2023/06/09 08:27:17;;;;;;;5.45;0.70;;;;;;;;;;5011798;28;20049;-41
2023/06/09 08:29:44;;;;;;;6.47;0.57;;;;;;;;;;5011822;28;20034;-41
2023/06/09 08:32:11;;;;;;;4.53;0.90;;;;;;;;;;5011580;28;20042;-41
2023/06/09 08:34:38;;;;;;;4.28;0.70;;;;;;;;;;5011769;28;20029;-41
2023/06/09 08:37:05;;;;;;;5.00;0.65;;;;;;;;;;5011721;28;20029;-41
2023/06/09 08:39:32;;;;;;;4.53;0.70;;;;;;;;;;5011818;28;20121;-41
2023/06/09 08:42:01;;;;;;;4.95;0.80;;;;;;;;;;5011615;28;20547;-41
2023/06/09 08:44:29;;;;;;;2.60;0.70;;;;;;;;;;5011783;28;20472;-41
2023/06/09 08:47:02;;;;;;;3.22;0.50;;;;;;;;;;5011664;28;20091;-41
2023/06/09 08:49:30;;;;;;;2.85;0.65;;;;;;;;;;5011627;28;20034;-41
2023/06/09 08:51:59;;;;;;;3.75;0.80;;;;;;;;;;5011574;28;20369;-41
2023/06/09 08:54:26;;;;;;;6.93;0.80;;;;;;;;;;5011521;28;20100;-41
2023/06/09 08:56:53;;;;;;;4.90;0.90;;;;;;;;;;5011615;28;20506;-41
2023/06/09 08:59:22;;;;;;;3.60;0.60;;;;;;;;;;5013393;28;20038;-41
2023/06/09 09:01:52;;;;;;;4.75;0.70;;;;;;;;;;5015333;28;20590;-41
2023/06/09 09:04:19;;;;;;;3.65;0.60;;;;;;;;;;5015376;28;20475;-41
2023/06/09 09:06:46;;;;;;;4.20;1.02;;;;;;;;;;5015390;28;20488;-41
2023/06/09 09:09:13;;;;;;;2.97;0.60;;;;;;;;;;5015349;28;20029;-41
2023/06/09 09:11:40;;;;;;;1.92;0.60;;;;;;;;;;5015099;28;20056;-41
2023/06/09 09:14:11;;;;;;;3.45;0.68;;;;;;;;;;5015168;28;20034;-39
2023/06/09 09:16:38;;;;;;;2.28;0.60;;;;;;;;;;5015040;28;20046;-39
2023/06/09 09:19:05;;;;;;;4.80;0.50;;;;;;;;;;5015108;28;20025;-40
2023/06/09 09:21:38;;;;;;;3.60;0.40;;;;;;;;;;5014976;28;20042;-39
2023/06/09 09:24:06;;;;;;;2.67;0.63;;;;;;;;;;5014874;28;20555;-39
2023/06/09 09:26:33;;;;;;;3.42;0.60;;;;;;;;;;5014966;28;20037;-39
2023/06/09 09:29:06;;;;;;;3.78;0.63;;;;;;;;;;5014894;28;20044;-39
2023/06/09 09:31:34;;;;;;;2.92;0.50;;;;;;;;;;5014970;28;20441;-39
2023/06/09 09:34:01;;;;;;;5.43;0.68;;;;;;;;;;5014921;28;20061;-39
2023/06/09 09:36:28;;;;;;;4.28;0.40;;;;;;;;;;5014835;28;20488;-39
2023/06/09 09:38:56;;;;;;;2.65;0.57;;;;;;;;;;5014671;28;20523;-39
2023/06/09 09:41:23;;;;;;;2.22;0.50;;;;;;;;;;5014597;28;20069;-40
2023/06/09 09:43:56;;;;;;;6.00;0.60;;;;;;;;;;5014663;28;20033;-39
2023/06/09 09:46:23;;;;;;;7.80;0.90;;;;;;;;;;5014531;28;20057;-39
2023/06/09 09:48:50;;;;;;;2.50;0.40;;;;;;;;;;5014535;28;20053;-39
2023/06/09 09:51:20;;;;;;;3.83;0.60;;;;;;;;;;5014218;28;20030;-39
2023/06/09 09:53:50;;;;;;;3.30;0.65;;;;;;;;;;5014310;28;20038;-39
2023/06/09 09:56:21;;;;;;;2.92;0.70;;;;;;;;;;5013234;28;20041;-39
2023/06/09 09:58:51;;;;;;;2.67;0.50;;;;;;;;;;5014433;28;20029;-39
2023/06/09 10:01:19;;;;;;;4.50;0.80;;;;;;;;;;5008523;28;20405;-41
2023/06/09 10:03:47;;;;;;;2.22;0.52;;;;;;;;;;4994594;28;20110;-39
2023/06/09 10:06:15;;;;;;;16.40;0.88;;;;;;;;;;4994652;28;20077;-41
2023/06/09 10:08:42;;;;;;;5.93;0.75;;;;;;;;;;5007879;28;20034;-41
2023/06/09 10:11:09;;;;;;;7.28;0.60;;;;;;;;;;5013838;28;20125;-40
2023/06/09 10:13:37;;;;;;;9.48;0.57;;;;;;;;;;5014138;28;20030;-43
2023/06/09 10:16:05;;;;;;;5.82;0.75;;;;;;;;;;5013142;28;20140;-40
2023/06/09 10:18:32;;;;;;;5.85;0.60;;;;;;;;;;5013502;28;20388;-40
2023/06/09 10:21:00;;;;;;;5.88;0.77;;;;;;;;;;5013380;28;20029;-40
2023/06/09 10:23:27;;;;;;;10.48;0.80;;;;;;;;;;5013337;28;20091;-41
2023/06/09 10:25:54;;;;;;;3.92;0.75;;;;;;;;;;5013855;28;20042;-39
2023/06/09 10:28:21;;;;;;;13.55;1.08;;;;;;;;;;5013447;28;20037;-41
2023/06/09 10:30:50;;;;;;;3.03;0.68;;;;;;;;;;5012581;28;20042;-41
2023/06/09 10:33:19;;;;;;;11.15;0.98;;;;;;;;;;5012869;28;20025;-40
2023/06/09 10:35:48;;;;;;;9.73;1.33;;;;;;;;;;5010311;28;20038;-40
2023/06/09 10:38:33;;;;;;;12.88;1.10;;;;;;;;;;5012970;28;20108;-40
2023/06/09 10:41:06;;;;;;;8.45;0.63;;;;;;;;;;5010710;28;20041;-39
2023/06/09 10:43:42;;;;;;;12.85;1.20;;;;;;;;;;5012768;28;20100;-40
2023/06/09 10:46:12;;;;;;;5.75;1.35;;;;;;;;;;5012245;28;20049;-40
2023/06/09 10:48:52;;;;;;;10.80;1.17;;;;;;;;;;5011940;28;20030;-40
2023/06/09 10:51:28;;;;;;;21.25;1.92;;;;;;;;;;5012715;28;20041;-40
2023/06/09 10:54:07;;;;;;;18.08;1.45;;;;;;;;;;5012480;28;20030;-41
2023/06/09 10:56:41;;;;;;;10.27;1.60;;;;;;;;;;5013241;28;20429;-42
2023/06/09 10:59:26;;;;;;;12.25;1.27;;;;;;;;;;5012965;28;20125;-42
2023/06/09 11:02:08;;;;;;;15.57;1.25;;;;;;;;;;5013140;28;20092;-42
2023/06/09 11:04:44;;;;;;;15.07;1.50;;;;;;;;;;5013083;28;20053;-41
2023/06/09 11:07:25;;;;;;;8.23;1.50;;;;;;;;;;5012800;28;20602;-40
2023/06/09 11:09:53;;;;;;;15.45;1.48;;;;;;;;;;4981710;28;20121;-42
2023/06/09 11:12:23;;;;;;;15.70;1.67;;;;;;;;;;5012347;28;20046;-44
2023/06/09 11:14:57;;;;;;;13.18;1.30;;;;;;;;;;5010707;28;20042;-43
2023/06/09 11:17:30;;;;;;;22.25;1.80;;;;;;;;;;4992227;28;20046;-42
2023/06/09 11:20:06;;;;;;;10.60;1.63;;;;;;;;;;4990817;28;20034;-43
2023/06/09 11:22:34;;;;;;;22.88;2.00;;;;;;;;;;4990080;28;20042;-42
2023/06/09 11:25:01;;;;;;;37.90;2.70;;;;;;;;;;4983300;28;20041;-41
2023/06/09 11:27:28;;;;;;;36.60;3.03;;;;;;;;;;4989877;28;20053;-44
2023/06/09 11:30:09;;;;;;;61.38;3.33;;;;;;;;;;4991265;28;20052;-47
2023/06/09 11:32:51;;;;;;;76.30;5.00;;;;;;;;;;4991553;28;20031;-43
2023/06/09 11:35:24;;;;;;;263.13;14.45;;;;;;;;;;4991189;28;20030;-43
2023/06/09 11:37:51;;;;;;;95.28;5.38;;;;;;;;;;4991493;28;20026;-44
2023/06/09 11:40:19;;;;;;;69.85;4.80;;;;;;;;;;4991552;28;20084;-45
2023/06/09 11:42:49;;;;;;;49.78;4.40;;;;;;;;;;4992004;28;20543;-44
2023/06/09 11:45:16;;;;;;;48.42;4.13;;;;;;;;;;4992051;28;20109;-41
2023/06/09 11:47:45;;;;;;;37.85;4.38;;;;;;;;;;4992034;28;20085;-41
2023/06/09 11:50:15;;;;;;;52.53;4.25;;;;;;;;;;4991779;28;20034;-43
2023/06/09 11:52:43;;;;;;;44.78;3.67;;;;;;;;;;4989547;28;20029;-46
2023/06/09 11:55:12;;;;;;;95.82;6.97;;;;;;;;;;4991739;28;20082;-43
2023/06/09 11:57:39;;;;;;;93.18;8.77;;;;;;;;;;4991686;28;20396;-43
2023/06/09 12:00:12;;;;;;;78.53;5.70;;;;;;;;;;4992092;28;20483;-43
2023/06/09 12:02:44;;;;;;;69.35;5.50;;;;;;;;;;4978029;28;20050;-43
2023/06/09 12:05:12;;;;;;;43.60;4.60;;;;;;;;;;4991534;28;20488;-42
2023/06/09 12:07:41;;;;;;;43.72;5.13;;;;;;;;;;4991777;28;20038;-42
2023/06/09 12:10:08;;;;;;;52.42;5.90;;;;;;;;;;4991599;28;20022;-42
2023/06/09 12:12:48;;;;;;;49.80;5.13;;;;;;;;;;4989327;28;20038;-43
2023/06/09 12:15:16;;;;;;;52.83;5.13;;;;;;;;;;4994090;28;20439;-43
2023/06/09 12:17:43;;;;;;;53.67;5.38;;;;;;;;;;5011594;28;20112;-42
2023/06/09 12:20:20;;;;;;;39.40;4.25;;;;;;;;;;5011204;28;20039;-42
2023/06/09 12:22:47;;;;;;;33.58;4.07;;;;;;;;;;5011513;28;20037;-43
2023/06/09 12:25:40;;;;;;;47.83;5.18;;;;;;;;;;5011445;28;20022;-42
2023/06/09 12:28:14;;;;;;;48.63;5.40;;;;;;;;;;5008834;28;20033;-43
2023/06/09 12:30:48;;;;;;;49.10;4.53;;;;;;;;;;5011168;28;20037;-42
2023/06/09 12:33:20;;;;;;;36.67;4.13;;;;;;;;;;5013071;28;20032;-42
2023/06/09 12:35:48;;;;;;;35.40;4.35;;;;;;;;;;5015423;28;20029;-42
2023/06/09 12:38:18;;;;;;;35.53;3.92;;;;;;;;;;5015367;28;20025;-42
2023/06/09 12:40:46;;;;;;;39.17;3.75;;;;;;;;;;5015392;28;20120;-47
2023/06/09 12:43:13;;;;;;;31.63;3.58;;;;;;;;;;5015165;28;20480;-41
2023/06/09 12:45:42;;;;;;;42.97;4.18;;;;;;;;;;5015249;28;20511;-42
2023/06/09 12:48:09;;;;;;;53.20;3.65;;;;;;;;;;5014989;28;20034;-43
2023/06/09 12:50:37;;;;;;;39.55;3.67;;;;;;;;;;5014885;28;20038;-43
2023/06/09 12:53:07;;;;;;;44.80;3.72;;;;;;;;;;5015341;28;20038;-42
2023/06/09 12:55:35;;;;;;;37.40;3.88;;;;;;;;;;5015045;28;20029;-43
2023/06/09 12:58:02;;;;;;;27.50;3.00;;;;;;;;;;5015099;28;20411;-42
2023/06/09 13:00:29;;;;;;;32.22;3.85;;;;;;;;;;5014918;28;20029;-43
2023/06/09 13:02:57;;;;;;;42.17;3.47;;;;;;;;;;5015048;28;20038;-44
2023/06/09 13:05:30;;;;;;;35.42;3.22;;;;;;;;;;5014676;28;20092;-43
2023/06/09 13:07:58;;;;;;;34.50;3.20;;;;;;;;;;5013535;28;20089;-43
2023/06/09 13:10:25;;;;;;;30.30;3.40;;;;;;;;;;5014546;28;20116;-43
2023/06/09 13:12:52;;;;;;;27.73;3.38;;;;;;;;;;5014844;28;20137;-44
2023/06/09 13:15:23;;;;;;;28.10;3.05;;;;;;;;;;5014360;28;20041;-44
2023/06/09 13:17:51;;;;;;;31.67;3.40;;;;;;;;;;5014785;28;20030;-44
2023/06/09 13:20:19;;;;;;;31.40;2.63;;;;;;;;;;5014556;28;20137;-43
2023/06/09 13:22:46;;;;;;;44.75;3.78;;;;;;;;;;5014723;28;20041;-42
2023/06/09 13:25:14;;;;;;;31.63;3.03;;;;;;;;;;5014561;28;20033;-44
2023/06/09 13:27:44;;;;;;;54.22;4.97;;;;;;;;;;5014514;28;20049;-44
2023/06/09 13:30:11;;;;;;;45.70;3.70;;;;;;;;;;5013922;28;20121;-42
2023/06/09 13:32:38;;;;;;;49.45;3.90;;;;;;;;;;5014622;28;20038;-43
2023/06/09 13:35:05;;;;;;;49.42;3.97;;;;;;;;;;5014286;28;20434;-43
2023/06/09 13:37:32;;;;;;;50.30;3.53;;;;;;;;;;5014409;28;20095;-42
2023/06/09 13:39:59;;;;;;;24.80;2.85;;;;;;;;;;5014034;28;20100;-42
2023/06/09 13:42:26;;;;;;;43.60;2.75;;;;;;;;;;5014336;28;20029;-43
2023/06/09 13:44:53;;;;;;;36.55;3.47;;;;;;;;;;5012112;28;20034;-42
2023/06/09 13:47:21;;;;;;;42.80;3.10;;;;;;;;;;5014248;28;20041;-42
2023/06/09 13:49:49;;;;;;;44.85;3.65;;;;;;;;;;5014104;28;20038;-43
2023/06/09 13:52:15;;;;;;;71.40;4.97;;;;;;;;;;5013803;28;20065;-43
2023/06/09 13:54:42;;;;;;;42.63;4.30;;;;;;;;;;5001215;28;20497;-42
2023/06/09 13:57:11;;;;;;;61.10;4.07;;;;;;;;;;5013694;28;20037;-44
2023/06/09 13:59:37;;;;;;;57.30;3.67;;;;;;;;;;5013763;28;20486;-42
2023/06/09 14:02:05;;;;;;;56.28;3.72;;;;;;;;;;5013854;28;20087;-43
2023/06/09 14:04:32;;;;;;;58.00;4.10;;;;;;;;;;5013996;28;20029;-42
2023/06/09 14:06:59;;;;;;;46.17;3.67;;;;;;;;;;5013548;28;20125;-42
2023/06/09 14:09:26;;;;;;;33.03;3.35;;;;;;;;;;5013831;28;20037;-42
2023/06/09 14:11:53;;;;;;;52.13;4.15;;;;;;;;;;5012846;28;20080;-43
2023/06/09 14:14:20;;;;;;;48.40;3.95;;;;;;;;;;5013687;28;20026;-42
2023/06/09 14:16:47;;;;;;;34.17;3.78;;;;;;;;;;5012919;28;20052;-42
2023/06/09 14:19:14;;;;;;;46.72;3.20;;;;;;;;;;5013540;28;20131;-42
2023/06/09 14:21:41;;;;;;;40.15;3.97;;;;;;;;;;5013660;28;20057;-43
2023/06/09 14:24:08;;;;;;;49.97;3.97;;;;;;;;;;4998916;28;20403;-44
2023/06/09 14:26:35;;;;;;;62.90;5.40;;;;;;;;;;5012024;28;20033;-43
2023/06/09 14:29:02;;;;;;;61.97;4.88;;;;;;;;;;5013440;28;20045;-44
2023/06/09 14:31:29;;;;;;;65.55;4.72;;;;;;;;;;5010367;28;20069;-46
2023/06/09 14:33:56;;;;;;;76.15;5.68;;;;;;;;;;5009161;28;20037;-44
2023/06/09 14:36:23;;;;;;;69.95;5.28;;;;;;;;;;5012709;28;20112;-43
2023/06/09 14:38:50;;;;;;;67.22;5.20;;;;;;;;;;5012584;28;20040;-42
2023/06/09 14:41:18;;;;;;;64.43;5.00;;;;;;;;;;5012779;28;20026;-45